Decoded Metar for KOVS (BOSCOBEL in WI, USA) (IATA:OVS) | Meteo·Mobile Aviation Weather
aviador You're here:

KOVS Decoded Metar

BOSCOBEL in WI, USA
Report Time2019-10-18 12:53:00
UTC Time2019-10-18 13:57:36
Flight Rules vfr VFR
WindCalm
Visibility9999 m
Phenomena:N/A
Clouds:N/A
Expected CloudBase > 800 ft AGL from Temp-Dew spread
CeilingNone
Temp04°C (ISA -10)
Dew Point02°C (87% RH)
AAT2.3°C
QNH1015 hPa
Density Alt-479 ft
Elevation663 ft
Report Wrong Elevation
Raw Report
KOVS 181253Z AUTO 00000KT 8SM CLR 04/02 A2998 RMK AO2 SLP158
T00390022=

Extra information for KOVS:More info

Metar Taf Metar & Taf Last 4 Metars F.Rules Stats Wind Profile Meteogram Temp Stats Airport Information Weather charts Add Link Nearby VenuesMetar ALERT Operation Metar Decoded Social comments

AIRNAV info for KOVS